Time;durP1;ratioP1;P1;durP2;ratioP2;P2;SDS_P1;SDS_P2;PMS_P1;PMS_P2;Temp;Humidity;BMP_temperature;BMP_pressure;BME280_temperature;BME280_humidity;BME280_pressure;Samples;Min_cycle;Max_cycle;Signal;HPM_P1;HPM_P2
2022/03/20 00:00:08;;;;;;;25.33;16.38;;;4.90;60.70;;;;;;5021097;28;20478;-63
2022/03/20 00:02:35;;;;;;;24.65;16.13;;;4.80;60.90;;;;;;5024621;28;20036;-65
2022/03/20 00:05:02;;;;;;;24.30;16.00;;;4.80;61.00;;;;;;5018973;28;20048;-65
2022/03/20 00:07:34;;;;;;;27.95;15.82;;;4.80;61.00;;;;;;5017880;28;20391;-65
2022/03/20 00:10:02;;;;;;;23.95;15.73;;;4.80;61.10;;;;;;5001930;28;20038;-65
2022/03/20 00:12:27;;;;;;;27.90;16.23;;;4.80;61.00;;;;;;5011326;28;20040;-65
2022/03/20 00:14:53;;;;;;;25.75;16.08;;;4.80;61.80;;;;;;5020118;28;20033;-65
2022/03/20 00:17:20;;;;;;;22.98;15.57;;;4.80;61.10;;;;;;5019898;28;20037;-64
2022/03/20 00:19:47;;;;;;;26.13;16.25;;;4.80;61.10;;;;;;5003567;28;20417;-65
2022/03/20 00:22:13;;;;;;;26.73;15.60;;;4.70;60.90;;;;;;5014094;28;20504;-64
2022/03/20 00:24:42;;;;;;;27.55;16.77;;;4.80;60.90;;;;;;5014252;28;20026;-65
2022/03/20 00:27:12;;;;;;;24.95;15.65;;;4.70;60.70;;;;;;5019039;28;20045;-64
2022/03/20 00:29:39;;;;;;;27.83;17.05;;;4.80;60.70;;;;;;5019622;28;20037;-64
2022/03/20 00:32:06;;;;;;;24.02;15.23;;;4.70;60.70;;;;;;5022349;28;20128;-64
2022/03/20 00:34:32;;;;;;;25.13;16.35;;;4.70;60.70;;;;;;5017122;28;20049;-65
2022/03/20 00:36:58;;;;;;;22.35;14.73;;;4.70;61.60;;;;;;5021850;28;20037;-65
2022/03/20 00:39:23;;;;;;;25.92;15.48;;;4.70;60.60;;;;;;5015460;28;20548;-64
2022/03/20 00:41:49;;;;;;;25.15;15.35;;;4.60;60.60;;;;;;5016801;28;20116;-63
2022/03/20 00:44:15;;;;;;;26.10;15.48;;;4.60;60.80;;;;;;5019480;28;20041;-65
2022/03/20 00:46:40;;;;;;;23.20;15.38;;;4.60;60.90;;;;;;5017794;28;20044;-64
2022/03/20 00:49:06;;;;;;;25.80;15.70;;;4.50;61.00;;;;;;5017609;28;20035;-64
2022/03/20 00:51:33;;;;;;;26.83;16.05;;;4.50;61.00;;;;;;5025949;28;20037;-64
2022/03/20 00:53:59;;;;;;;26.25;15.82;;;4.50;60.90;;;;;;5023852;28;20543;-65
2022/03/20 00:56:25;;;;;;;26.67;16.48;;;4.50;60.80;;;;;;5021394;28;20095;-64
2022/03/20 00:58:51;;;;;;;32.17;16.60;;;4.40;60.60;;;;;;5021731;28;20026;-65
2022/03/20 01:01:17;;;;;;;26.92;17.10;;;4.30;60.50;;;;;;5020097;28;20034;-65
2022/03/20 01:03:43;;;;;;;26.58;15.43;;;4.20;60.70;;;;;;5023127;28;20033;-64
2022/03/20 01:06:10;;;;;;;24.63;15.68;;;4.20;60.90;;;;;;5020280;28;20033;-64
2022/03/20 01:08:37;;;;;;;25.67;16.08;;;4.10;61.10;;;;;;5022338;28;20045;-64
2022/03/20 01:11:07;;;;;;;29.63;16.05;;;4.10;61.10;;;;;;5015269;28;20042;-63
2022/03/20 01:13:33;;;;;;;25.80;16.05;;;4.00;61.10;;;;;;5017878;28;20140;-65
2022/03/20 01:15:59;;;;;;;25.42;16.50;;;4.00;61.10;;;;;;5020309;28;20033;-65
2022/03/20 01:18:25;;;;;;;26.17;16.17;;;3.90;61.10;;;;;;5020080;28;20034;-65
2022/03/20 01:20:52;;;;;;;25.83;16.77;;;3.90;61.20;;;;;;5020845;28;20033;-64
2022/03/20 01:23:21;;;;;;;26.65;16.08;;;3.80;61.30;;;;;;5018553;28;20515;-65
2022/03/20 01:25:47;;;;;;;27.70;15.90;;;3.70;61.30;;;;;;5022173;28;20408;-65
2022/03/20 01:28:14;;;;;;;29.45;16.30;;;3.70;61.40;;;;;;5017675;28;20688;-64
2022/03/20 01:30:40;;;;;;;32.95;17.13;;;3.60;61.60;;;;;;5018786;28;20037;-65
2022/03/20 01:33:06;;;;;;;25.67;15.85;;;3.50;61.70;;;;;;5022827;28;20160;-64
2022/03/20 01:35:32;;;;;;;29.38;15.82;;;3.50;61.80;;;;;;5023684;28;20116;-64
2022/03/20 01:37:58;;;;;;;29.02;16.52;;;3.50;62.00;;;;;;5021900;28;20519;-65
2022/03/20 01:40:25;;;;;;;26.65;16.25;;;3.50;62.00;;;;;;5016928;28;20493;-67
2022/03/20 01:42:51;;;;;;;28.10;16.58;;;3.50;62.00;;;;;;5020101;28;20033;-65
2022/03/20 01:45:20;;;;;;;27.90;15.80;;;3.50;61.90;;;;;;5019107;28;20098;-65
2022/03/20 01:47:47;;;;;;;29.52;17.13;;;3.50;61.80;;;;;;5023226;28;20042;-64
2022/03/20 01:50:21;;;;;;;26.83;16.80;;;3.50;61.80;;;;;;5024092;28;20527;-65
2022/03/20 01:52:50;;;;;;;26.52;16.20;;;3.40;61.80;;;;;;5024263;28;20504;-65
2022/03/20 01:55:18;;;;;;;25.13;14.70;;;3.30;61.60;;;;;;5021841;28;20041;-65
2022/03/20 01:57:44;;;;;;;27.88;15.90;;;3.30;61.80;;;;;;5017353;28;20445;-64
2022/03/20 02:00:13;;;;;;;25.40;15.93;;;3.20;62.10;;;;;;5020749;28;20069;-65
2022/03/20 02:02:39;;;;;;;28.10;15.40;;;3.20;62.30;;;;;;5019679;28;20030;-65
2022/03/20 02:05:10;;;;;;;24.30;14.38;;;3.10;62.40;;;;;;5021265;28;20045;-64
2022/03/20 02:07:37;;;;;;;27.00;15.93;;;3.10;62.60;;;;;;5018749;28;20038;-64
2022/03/20 02:10:04;;;;;;;28.15;16.80;;;3.00;62.60;;;;;;5016994;28;20041;-65
2022/03/20 02:12:30;;;;;;;24.20;15.30;;;3.00;62.70;;;;;;5007091;28;20041;-65
2022/03/20 02:14:58;;;;;;;29.25;16.77;;;3.00;62.80;;;;;;5016982;28;20051;-65
2022/03/20 02:17:26;;;;;;;26.35;16.33;;;3.00;62.70;;;;;;5013991;28;20039;-65
2022/03/20 02:19:52;;;;;;;25.48;15.38;;;3.00;62.80;;;;;;5015960;28;20394;-64
2022/03/20 02:22:17;;;;;;;24.67;14.98;;;2.90;62.80;;;;;;5013488;28;20316;-64
2022/03/20 02:24:48;;;;;;;27.90;16.70;;;2.90;62.90;;;;;;5015125;28;20504;-65
2022/03/20 02:27:17;;;;;;;28.17;16.48;;;2.90;63.10;;;;;;5019375;28;20084;-65
2022/03/20 02:29:46;;;;;;;25.77;15.70;;;2.90;63.20;;;;;;5021607;28;20400;-65
2022/03/20 02:32:14;;;;;;;29.15;16.50;;;2.90;63.40;;;;;;5010821;28;20409;-62
2022/03/20 02:34:41;;;;;;;29.50;17.25;;;2.90;63.50;;;;;;5017896;28;20030;-65
2022/03/20 02:37:08;;;;;;;25.67;15.93;;;2.90;63.50;;;;;;5015035;28;20049;-64
2022/03/20 02:39:35;;;;;;;30.55;16.67;;;2.90;63.60;;;;;;5017283;28;20117;-65
2022/03/20 02:42:04;;;;;;;28.75;17.45;;;3.00;63.80;;;;;;5015654;28;20038;-63
2022/03/20 02:44:49;;;;;;;30.42;17.80;;;3.00;63.90;;;;;;5015096;28;20050;-65
2022/03/20 02:47:15;;;;;;;;;;;3.10;64.20;;;;;;5021348;28;20335;-65
2022/03/20 02:49:42;;;;;;;27.58;16.33;;;3.10;64.30;;;;;;5024664;28;20327;-65
2022/03/20 02:52:07;;;;;;;27.77;16.27;;;3.10;63.70;;;;;;5021549;28;20033;-63
2022/03/20 02:54:33;;;;;;;32.90;17.45;;;3.10;63.80;;;;;;5025083;28;20547;-64
2022/03/20 02:57:04;;;;;;;28.23;17.02;;;3.20;63.90;;;;;;5023840;28;20083;-65
2022/03/20 02:59:29;;;;;;;32.03;17.55;;;3.20;64.00;;;;;;5024924;28;20463;-64
2022/03/20 03:01:55;;;;;;;29.67;17.15;;;3.20;64.00;;;;;;5022969;28;20048;-64
2022/03/20 03:04:23;;;;;;;32.53;17.90;;;3.30;64.10;;;;;;5019981;28;20403;-64
2022/03/20 03:06:48;;;;;;;30.08;17.23;;;3.30;64.00;;;;;;5022213;28;20250;-65
2022/03/20 03:11:58;;;;;;;26.98;16.25;;;3.40;63.90;;;;;;5010449;28;20137;-65
2022/03/20 03:17:08;;;;;;;28.65;17.02;;;3.50;63.80;;;;;;5026306;28;20040;-65
2022/03/20 03:19:33;;;;;;;31.15;17.63;;;3.50;63.80;;;;;;5019351;28;20041;-64
2022/03/20 03:22:01;;;;;;;32.17;18.58;;;3.50;63.80;;;;;;5022653;28;20079;-65
2022/03/20 03:24:26;;;;;;;28.95;17.90;;;3.50;63.90;;;;;;5021785;28;20628;-64
2022/03/20 03:26:52;;;;;;;30.15;17.67;;;3.50;63.90;;;;;;5018554;28;20045;-64
2022/03/20 03:29:17;;;;;;;30.77;17.33;;;3.50;63.70;;;;;;5020091;28;20402;-64
2022/03/20 03:31:44;;;;;;;29.80;18.20;;;3.60;63.90;;;;;;5025710;28;20037;-65
2022/03/20 03:36:54;;;;;;;29.43;16.57;;;3.60;63.70;;;;;;5024001;28;20103;-64
2022/03/20 03:39:20;;;;;;;27.52;17.05;;;3.60;63.50;;;;;;5021581;28;20501;-65
2022/03/20 03:41:45;;;;;;;29.33;17.73;;;3.60;63.60;;;;;;5019394;28;20107;-65
2022/03/20 03:44:11;;;;;;;28.40;16.77;;;3.60;63.60;;;;;;5019458;28;20042;-64
2022/03/20 03:46:37;;;;;;;30.30;17.60;;;3.60;63.70;;;;;;5014491;28;20476;-64
2022/03/20 03:49:03;;;;;;;29.60;17.95;;;3.60;63.70;;;;;;5027325;28;20512;-65
2022/03/20 03:51:28;;;;;;;29.70;17.35;;;3.60;63.40;;;;;;5016440;28;20120;-64
2022/03/20 03:53:54;;;;;;;27.98;16.67;;;3.60;63.20;;;;;;5018108;28;20551;-65
2022/03/20 03:56:20;;;;;;;28.40;16.73;;;3.50;63.20;;;;;;5019667;28;20040;-63
2022/03/20 03:58:45;;;;;;;29.23;16.40;;;3.50;64.00;;;;;;5017979;28;20033;-65
2022/03/20 04:01:11;;;;;;;29.33;17.05;;;3.50;63.30;;;;;;5025827;28;20037;-65
2022/03/20 04:03:37;;;;;;;24.65;15.18;;;3.50;63.30;;;;;;5019325;28;20148;-65
2022/03/20 04:06:04;;;;;;;26.67;16.52;;;3.50;63.30;;;;;;5011502;28;20090;-64
2022/03/20 04:08:30;;;;;;;26.55;16.08;;;3.50;63.20;;;;;;5017882;28;20041;-64
2022/03/20 04:10:56;;;;;;;27.33;16.55;;;3.50;63.30;;;;;;5012572;28;20045;-64
2022/03/20 04:13:22;;;;;;;28.58;15.90;;;3.60;63.20;;;;;;5011740;28;20090;-64
2022/03/20 04:15:47;;;;;;;30.00;17.02;;;3.50;63.00;;;;;;5018777;28;20037;-64
2022/03/20 04:18:14;;;;;;;30.15;17.35;;;3.50;63.00;;;;;;5020229;28;20033;-64
2022/03/20 04:20:39;;;;;;;27.85;16.27;;;3.50;63.00;;;;;;5014492;28;20033;-64
2022/03/20 04:25:49;;;;;;;31.02;16.75;;;3.40;63.10;;;;;;5025291;28;20061;-65
2022/03/20 04:28:16;;;;;;;30.08;17.02;;;3.40;63.20;;;;;;5018235;28;20037;-65
2022/03/20 04:30:42;;;;;;;30.08;16.83;;;3.40;63.50;;;;;;5018954;28;20060;-64
2022/03/20 04:33:08;;;;;;;28.25;17.52;;;3.40;63.50;;;;;;5026058;28;20041;-64
2022/03/20 04:35:34;;;;;;;27.15;17.08;;;3.40;63.50;;;;;;5018111;28;20025;-63
2022/03/20 04:38:00;;;;;;;27.42;16.08;;;3.40;63.30;;;;;;5015230;28;20045;-65
2022/03/20 04:40:25;;;;;;;23.90;15.32;;;3.30;63.20;;;;;;5013830;28;20033;-64
2022/03/20 04:42:51;;;;;;;32.63;17.15;;;3.30;63.20;;;;;;5015087;28;20037;-63
2022/03/20 04:45:17;;;;;;;27.10;16.67;;;3.20;63.30;;;;;;5017014;28;20056;-65
2022/03/20 04:58:43;;;;;;;30.02;17.08;;;3.10;63.00;;;;;;5019933;28;20048;-64
2022/03/20 05:01:09;;;;;;;27.27;16.90;;;3.10;63.20;;;;;;5018887;28;20042;-65
2022/03/20 05:03:35;;;;;;;32.45;17.85;;;3.00;63.50;;;;;;5016201;28;20412;-64
2022/03/20 05:06:02;;;;;;;29.85;16.98;;;3.00;63.50;;;;;;5017274;28;20511;-65
2022/03/20 05:08:28;;;;;;;27.67;17.77;;;3.00;63.50;;;;;;5015736;28;20041;-65
2022/03/20 05:13:38;;;;;;;30.80;17.60;;;2.90;63.80;;;;;;5014715;28;20040;-65
2022/03/20 05:16:04;;;;;;;31.13;17.65;;;2.80;64.60;;;;;;5020341;28;20034;-65
2022/03/20 05:18:31;;;;;;;29.65;17.67;;;2.80;63.90;;;;;;5014968;28;20509;-65
2022/03/20 05:20:57;;;;;;;28.95;17.63;;;2.80;64.00;;;;;;5021179;28;20077;-64
2022/03/20 05:23:23;;;;;;;29.58;18.00;;;2.80;64.10;;;;;;5020998;28;20056;-64
2022/03/20 05:25:48;;;;;;;31.52;17.20;;;2.80;64.20;;;;;;5023768;28;20033;-64
2022/03/20 05:28:16;;;;;;;31.25;17.45;;;2.80;64.30;;;;;;5022865;28;20468;-64
2022/03/20 05:30:42;;;;;;;29.45;16.23;;;2.80;64.50;;;;;;5022580;28;20025;-64
2022/03/20 05:33:10;;;;;;;29.80;18.08;;;2.70;64.30;;;;;;5017085;28;20124;-64
2022/03/20 05:35:37;;;;;;;28.77;17.25;;;2.70;64.40;;;;;;5017977;28;20116;-65
2022/03/20 05:38:03;;;;;;;30.77;17.73;;;2.80;64.50;;;;;;5017945;28;20505;-65
2022/03/20 05:40:29;;;;;;;31.92;17.85;;;2.80;64.60;;;;;;5017696;28;20088;-64
2022/03/20 05:42:54;;;;;;;31.15;18.10;;;2.80;64.50;;;;;;5015276;28;20545;-64
2022/03/20 05:45:20;;;;;;;33.97;19.67;;;2.80;64.50;;;;;;5017659;28;20033;-63
2022/03/20 05:47:46;;;;;;;33.10;19.30;;;2.80;64.50;;;;;;5021286;28;20033;-65
2022/03/20 05:50:11;;;;;;;29.95;17.95;;;2.80;64.40;;;;;;5016891;28;20040;-65
2022/03/20 05:52:37;;;;;;;30.85;18.05;;;2.80;64.40;;;;;;5015053;28;20481;-63
2022/03/20 05:55:04;;;;;;;32.97;18.98;;;2.80;64.50;;;;;;5019994;28;20032;-64
2022/03/20 06:00:26;;;;;;;31.80;17.25;;;2.80;64.60;;;;;;5020280;28;20041;-64
2022/03/20 06:02:52;;;;;;;32.75;18.30;;;2.80;64.40;;;;;;5017957;28;20030;-65
2022/03/20 06:05:18;;;;;;;34.28;18.15;;;2.80;64.40;;;;;;5019588;28;21555;-65
2022/03/20 06:07:46;;;;;;;31.60;18.30;;;2.80;64.50;;;;;;5014492;28;20264;-65
2022/03/20 06:10:17;;;;;;;29.85;17.38;;;2.80;64.50;;;;;;5020980;28;20034;-65
2022/03/20 06:12:44;;;;;;;31.25;18.42;;;2.90;64.70;;;;;;5010038;28;21536;-64
2022/03/20 06:15:10;;;;;;;28.42;17.58;;;2.90;64.70;;;;;;5013753;28;20049;-63
2022/03/20 06:17:45;;;;;;;28.45;17.55;;;2.90;64.70;;;;;;5017894;28;20087;-65
2022/03/20 06:20:12;;;;;;;31.30;17.73;;;2.90;64.80;;;;;;5022699;28;20033;-63
2022/03/20 06:22:38;;;;;;;33.63;19.77;;;2.90;64.70;;;;;;5021204;28;20029;-64
2022/03/20 06:25:09;;;;;;;30.83;18.80;;;3.00;64.80;;;;;;5014022;28;20459;-65
2022/03/20 06:28:02;;;;;;;32.65;17.77;;;3.00;64.80;;;;;;5014666;28;20583;-64
2022/03/20 06:30:31;;;;;;;29.95;17.65;;;3.10;65.20;;;;;;5010187;28;20034;-64
2022/03/20 06:32:57;;;;;;;33.17;19.10;;;3.10;64.70;;;;;;5018486;28;20053;-64
2022/03/20 06:35:23;;;;;;;30.63;17.50;;;3.10;64.80;;;;;;5013210;28;20125;-63
2022/03/20 06:37:50;;;;;;;32.10;17.77;;;3.20;64.70;;;;;;5012214;28;20409;-64
2022/03/20 06:40:16;;;;;;;29.98;17.08;;;3.20;64.90;;;;;;5015880;28;20709;-63
2022/03/20 06:42:42;;;;;;;33.15;18.58;;;3.30;64.90;;;;;;5008309;28;20040;-64
2022/03/20 06:45:10;;;;;;;33.70;18.75;;;3.30;64.90;;;;;;5011314;28;20547;-64
2022/03/20 06:47:36;;;;;;;30.83;16.80;;;3.30;64.90;;;;;;5015853;28;20372;-64
2022/03/20 06:50:06;;;;;;;30.52;17.95;;;3.40;64.90;;;;;;5002093;28;20038;-64
2022/03/20 06:52:32;;;;;;;34.70;19.02;;;3.40;64.90;;;;;;5011901;28;20033;-64
2022/03/20 06:55:00;;;;;;;31.48;18.20;;;3.50;64.90;;;;;;5011333;28;20448;-65
2022/03/20 06:57:26;;;;;;;31.50;17.95;;;3.50;64.90;;;;;;5015223;28;20029;-64
2022/03/20 06:59:53;;;;;;;33.45;19.17;;;3.60;64.90;;;;;;5022317;28;20033;-64
2022/03/20 07:02:19;;;;;;;30.23;18.05;;;3.60;64.90;;;;;;5019527;28;20037;-65
2022/03/20 07:04:47;;;;;;;31.30;18.08;;;3.60;64.90;;;;;;5011665;28;20072;-65
2022/03/20 07:07:15;;;;;;;34.47;19.05;;;3.70;65.00;;;;;;5010641;28;20087;-65
2022/03/20 07:09:40;;;;;;;29.95;18.63;;;3.70;65.00;;;;;;5019155;28;20030;-64
2022/03/20 07:12:06;;;;;;;32.42;18.88;;;3.80;65.10;;;;;;5009390;28;20152;-65
2022/03/20 07:14:32;;;;;;;31.77;19.38;;;3.80;65.10;;;;;;5012760;28;20035;-64
2022/03/20 07:16:59;;;;;;;34.78;20.33;;;3.90;65.10;;;;;;5013858;28;20042;-64
2022/03/20 07:19:25;;;;;;;34.60;20.20;;;3.90;64.90;;;;;;5014722;28;20033;-64
2022/03/20 07:21:51;;;;;;;34.15;20.13;;;4.00;64.80;;;;;;5013944;28;20068;-64
2022/03/20 07:24:17;;;;;;;38.60;20.52;;;4.10;64.90;;;;;;5011350;28;20476;-62
2022/03/20 07:29:30;;;;;;;32.25;19.63;;;4.20;64.70;;;;;;5008808;28;21364;-64
2022/03/20 07:31:57;;;;;;;33.47;20.58;;;4.30;64.70;;;;;;5013043;28;20032;-64
2022/03/20 07:34:23;;;;;;;32.15;19.50;;;4.30;64.70;;;;;;5022108;28;20514;-64
2022/03/20 07:36:50;;;;;;;36.95;20.33;;;4.30;64.60;;;;;;5012983;28;20088;-64
2022/03/20 07:39:16;;;;;;;39.13;21.45;;;4.40;64.70;;;;;;5017816;28;20038;-64
2022/03/20 07:41:42;;;;;;;38.20;21.42;;;4.50;64.60;;;;;;5000545;28;21579;-62
2022/03/20 07:44:08;;;;;;;35.00;21.02;;;4.50;64.50;;;;;;5006597;28;20083;-63
2022/03/20 07:46:36;;;;;;;36.22;21.00;;;4.60;64.60;;;;;;5000676;28;20072;-62
2022/03/20 07:49:02;;;;;;;36.22;21.52;;;4.70;64.50;;;;;;5007802;28;20033;-63
2022/03/20 07:51:30;;;;;;;35.10;21.77;;;4.70;64.40;;;;;;5004525;28;20510;-64
2022/03/20 07:53:56;;;;;;;34.28;21.13;;;4.80;64.40;;;;;;4996699;28;20030;-62
2022/03/20 07:56:22;;;;;;;33.53;20.70;;;4.90;64.40;;;;;;5012632;28;20053;-64
2022/03/20 07:58:48;;;;;;;37.65;22.33;;;5.00;64.40;;;;;;5018957;28;20057;-64
2022/03/20 08:01:14;;;;;;;36.17;21.92;;;5.00;64.50;;;;;;5015949;28;20055;-64
2022/03/20 08:03:43;;;;;;;37.20;22.42;;;5.10;64.60;;;;;;5017628;28;20033;-65
2022/03/20 08:06:09;;;;;;;36.97;22.15;;;5.10;64.50;;;;;;5005811;28;20114;-63
2022/03/20 08:08:39;;;;;;;38.90;23.42;;;5.20;64.30;;;;;;4995577;28;20046;-64
2022/03/20 08:11:05;;;;;;;40.88;24.17;;;5.30;64.30;;;;;;4996784;28;20029;-62
2022/03/20 08:13:31;;;;;;;40.95;24.23;;;5.30;64.30;;;;;;5002498;28;20432;-64
2022/03/20 08:15:57;;;;;;;37.72;24.45;;;5.30;64.20;;;;;;5000811;28;20030;-64
2022/03/20 08:18:23;;;;;;;37.67;22.85;;;5.40;64.20;;;;;;4999379;28;20038;-65
2022/03/20 08:20:49;;;;;;;41.33;24.30;;;5.40;64.20;;;;;;5000349;28;20147;-65
2022/03/20 08:23:14;;;;;;;38.00;23.75;;;5.50;65.30;;;;;;4999089;28;20041;-64
2022/03/20 08:25:42;;;;;;;36.60;23.52;;;5.50;64.50;;;;;;4999896;28;20037;-63
2022/03/20 08:28:09;;;;;;;39.55;23.05;;;5.60;64.40;;;;;;4997404;28;20252;-65
2022/03/20 08:30:36;;;;;;;43.50;24.45;;;5.70;64.40;;;;;;4998555;28;20167;-63
2022/03/20 08:33:01;;;;;;;39.25;24.95;;;5.70;64.30;;;;;;5003432;28;20545;-65
2022/03/20 08:35:27;;;;;;;41.35;24.38;;;5.80;64.30;;;;;;5006065;28;20041;-65
2022/03/20 08:37:53;;;;;;;39.97;23.95;;;5.90;65.10;;;;;;4987918;28;20037;-64
2022/03/20 08:40:21;;;;;;;41.22;24.27;;;6.00;64.40;;;;;;4999982;28;20128;-65
2022/03/20 08:42:55;;;;;;;38.13;24.15;;;6.00;64.20;;;;;;4997648;28;20045;-64
2022/03/20 08:45:22;;;;;;;39.05;24.73;;;6.10;65.10;;;;;;4998952;28;20057;-65
2022/03/20 08:47:49;;;;;;;41.30;25.45;;;6.20;64.20;;;;;;5002912;28;20497;-64
2022/03/20 08:50:18;;;;;;;37.58;23.50;;;6.30;64.20;;;;;;4998712;28;20088;-65
2022/03/20 08:52:45;;;;;;;35.65;23.30;;;6.40;64.20;;;;;;4999335;28;20036;-65
2022/03/20 08:55:12;;;;;;;38.38;24.42;;;6.50;64.10;;;;;;5001550;28;21184;-62
2022/03/20 08:57:39;;;;;;;39.08;24.65;;;6.60;64.00;;;;;;5001906;28;20041;-65
2022/03/20 09:00:08;;;;;;;37.60;23.92;;;6.70;64.00;;;;;;5001148;28;20497;-65
2022/03/20 09:02:33;;;;;;;36.95;23.70;;;6.80;64.10;;;;;;5004218;28;20026;-62
2022/03/20 09:04:59;;;;;;;37.80;23.80;;;6.90;63.90;;;;;;5004075;28;20052;-64
2022/03/20 09:07:25;;;;;;;35.15;22.35;;;7.00;63.80;;;;;;5002789;28;20030;-64
2022/03/20 09:09:50;;;;;;;36.70;23.27;;;7.10;63.70;;;;;;5001409;28;20038;-64
2022/03/20 09:12:16;;;;;;;35.30;22.20;;;7.30;63.40;;;;;;4993563;28;20125;-64
2022/03/20 09:14:41;;;;;;;36.33;23.50;;;7.40;63.10;;;;;;5000773;28;20440;-65
2022/03/20 09:19:55;;;;;;;35.42;21.45;;;7.70;63.10;;;;;;4999287;28;20120;-65
2022/03/20 09:22:20;;;;;;;36.97;23.00;;;7.80;62.80;;;;;;4998751;28;20097;-65
2022/03/20 09:24:46;;;;;;;32.33;21.17;;;8.00;62.40;;;;;;5001827;28;20041;-65
2022/03/20 09:27:12;;;;;;;32.10;21.98;;;8.10;62.10;;;;;;5002891;28;20038;-65
2022/03/20 09:29:37;;;;;;;32.25;21.08;;;8.20;61.70;;;;;;5000421;28;20041;-64
2022/03/20 09:32:03;;;;;;;35.95;21.35;;;8.40;61.20;;;;;;5006571;28;20038;-65
2022/03/20 09:34:32;;;;;;;33.38;21.85;;;8.50;60.90;;;;;;5003446;28;20085;-65
2022/03/20 09:36:58;;;;;;;30.75;19.98;;;8.70;60.80;;;;;;4996825;28;20041;-65
2022/03/20 09:39:25;;;;;;;29.02;19.70;;;8.80;60.40;;;;;;5002549;28;20524;-66
2022/03/20 09:41:54;;;;;;;30.33;19.58;;;8.90;59.90;;;;;;4997508;28;20025;-64
2022/03/20 09:44:22;;;;;;;28.40;19.88;;;9.00;59.40;;;;;;4998072;28;20034;-65
2022/03/20 09:46:48;;;;;;;30.30;19.60;;;9.20;58.90;;;;;;4985272;28;20030;-65
2022/03/20 09:49:16;;;;;;;28.42;18.52;;;9.30;58.90;;;;;;4994266;28;20092;-65
2022/03/20 09:51:43;;;;;;;30.65;18.30;;;9.40;58.20;;;;;;4998728;28;20556;-65
2022/03/20 09:54:13;;;;;;;29.45;19.02;;;9.50;57.40;;;;;;5002760;28;20030;-65
2022/03/20 09:56:40;;;;;;;26.70;17.92;;;9.60;57.40;;;;;;5011731;28;20088;-65
2022/03/20 09:59:07;;;;;;;27.85;17.75;;;9.70;57.50;;;;;;5000948;28;20030;-65
2022/03/20 10:01:34;;;;;;;25.25;17.20;;;9.80;57.50;;;;;;4998491;28;20026;-64
2022/03/20 10:04:26;;;;;;;24.13;16.60;;;10.00;57.20;;;;;;4999822;28;20053;-65
2022/03/20 10:06:51;;;;;;;22.92;16.35;;;10.10;56.00;;;;;;4999213;28;20132;-63
2022/03/20 10:09:17;;;;;;;26.98;17.15;;;10.20;56.90;;;;;;5000313;28;20034;-64
2022/03/20 10:11:51;;;;;;;24.10;16.58;;;10.30;56.70;;;;;;4990457;28;20430;-65
2022/03/20 10:14:32;;;;;;;23.05;15.68;;;10.50;55.90;;;;;;4998271;28;20545;-62
2022/03/20 10:17:16;;;;;;;27.50;16.65;;;10.70;56.10;;;;;;4999584;28;20069;-65
2022/03/20 10:19:42;;;;;;;23.02;15.55;;;10.80;54.90;;;;;;4999363;28;20026;-65
2022/03/20 10:22:10;;;;;;;23.63;16.10;;;11.00;55.70;;;;;;4995394;28;20038;-64
2022/03/20 10:24:46;;;;;;;24.33;16.33;;;11.10;55.30;;;;;;5000049;28;20066;-64
2022/03/20 10:27:14;;;;;;;23.10;15.57;;;11.20;54.50;;;;;;5002449;28;20042;-65
2022/03/20 10:29:51;;;;;;;23.30;15.20;;;11.40;54.60;;;;;;5002001;28;20034;-65
2022/03/20 10:32:18;;;;;;;23.33;15.60;;;11.50;54.00;;;;;;4998374;28;20099;-65
2022/03/20 10:35:04;;;;;;;20.90;15.40;;;11.70;54.30;;;;;;4989763;28;20136;-66
2022/03/20 10:37:50;;;;;;;22.65;14.82;;;11.80;53.10;;;;;;4997536;28;20440;-65
2022/03/20 10:40:24;;;;;;;21.83;14.45;;;11.90;52.80;;;;;;4998431;28;20264;-65
2022/03/20 10:43:12;;;;;;;24.23;15.52;;;12.10;53.50;;;;;;4998654;28;20064;-64
2022/03/20 10:46:00;;;;;;;21.80;15.20;;;12.20;52.90;;;;;;4998365;28;20108;-64
2022/03/20 10:48:34;;;;;;;20.58;14.63;;;12.40;52.50;;;;;;4998289;28;20412;-65
2022/03/20 10:51:01;;;;;;;20.95;14.45;;;12.50;52.70;;;;;;4995949;28;20042;-65
2022/03/20 10:53:27;;;;;;;23.95;15.77;;;12.60;52.80;;;;;;4996720;28;20026;-64
2022/03/20 10:55:57;;;;;;;21.40;14.45;;;12.70;52.40;;;;;;4996910;28;20026;-65
2022/03/20 10:58:24;;;;;;;19.88;14.55;;;12.80;51.90;;;;;;5002379;28;20030;-65
2022/03/20 11:00:51;;;;;;;23.30;14.68;;;12.90;52.10;;;;;;5001238;28;20280;-65
2022/03/20 11:03:21;;;;;;;19.85;14.77;;;13.00;51.80;;;;;;4999185;28;20030;-66
2022/03/20 11:05:47;;;;;;;20.83;13.68;;;13.10;51.50;;;;;;5006049;28;20040;-65
2022/03/20 11:08:13;;;;;;;17.17;13.13;;;13.20;51.20;;;;;;5008821;28;20379;-65
2022/03/20 11:10:44;;;;;;;21.27;14.95;;;13.30;51.00;;;;;;5004531;28;20172;-65
2022/03/20 11:13:13;;;;;;;20.02;14.15;;;13.40;50.30;;;;;;5007653;28;21975;-65
2022/03/20 11:15:41;;;;;;;18.73;13.52;;;13.40;50.40;;;;;;5009171;28;20461;-65
2022/03/20 11:18:07;;;;;;;17.83;13.15;;;13.50;50.30;;;;;;5008287;28;20573;-65
2022/03/20 11:20:33;;;;;;;17.83;12.98;;;13.60;50.00;;;;;;5009015;28;20184;-65
2022/03/20 11:23:04;;;;;;;16.98;12.82;;;13.70;49.50;;;;;;5010594;28;20524;-65
2022/03/20 11:25:32;;;;;;;17.10;12.45;;;13.80;49.20;;;;;;5009548;28;20034;-65
2022/03/20 11:28:01;;;;;;;17.02;12.40;;;13.90;49.00;;;;;;5010443;28;20042;-65
2022/03/20 11:30:32;;;;;;;17.63;12.75;;;13.90;48.60;;;;;;4999696;28;20398;-65
2022/03/20 11:33:00;;;;;;;16.48;12.00;;;14.00;48.00;;;;;;5008965;28;20575;-65
2022/03/20 11:35:31;;;;;;;17.17;12.15;;;14.00;48.20;;;;;;5008495;28;20394;-65
2022/03/20 11:38:20;;;;;;;17.02;12.52;;;14.10;47.70;;;;;;5008485;28;20557;-65
2022/03/20 11:41:23;;;;;;;18.27;12.80;;;14.20;47.60;;;;;;5017059;28;20148;-65
2022/03/20 11:44:10;;;;;;;17.90;13.23;;;14.30;47.30;;;;;;5007873;28;20060;-65
2022/03/20 11:46:36;;;;;;;18.05;12.73;;;14.30;47.10;;;;;;5004598;28;20065;-65
2022/03/20 11:49:20;;;;;;;17.30;12.18;;;14.40;47.70;;;;;;5004002;28;20038;-66
2022/03/20 11:52:07;;;;;;;17.10;12.80;;;14.50;46.50;;;;;;5007018;28;20530;-65
2022/03/20 11:54:42;;;;;;;17.80;12.95;;;14.60;46.30;;;;;;5007242;28;20536;-65
2022/03/20 11:57:26;;;;;;;20.35;15.32;;;14.60;47.30;;;;;;5005795;28;20065;-66
2022/03/20 11:59:56;;;;;;;21.63;13.82;;;14.60;44.50;;;;;;5003823;28;20022;-65
2022/03/20 12:02:51;;;;;;;19.38;14.55;;;14.70;47.00;;;;;;5005298;28;20597;-66
2022/03/20 12:05:37;;;;;;;18.70;13.70;;;14.70;46.90;;;;;;5004953;28;20041;-66
2022/03/20 12:08:05;;;;;;;20.85;14.32;;;14.80;46.40;;;;;;5005377;28;20044;-66
2022/03/20 12:11:01;;;;;;;20.08;14.20;;;14.90;47.40;;;;;;5005252;28;20033;-64
2022/03/20 12:13:39;;;;;;;19.02;14.27;;;14.90;46.00;;;;;;5016034;28;20040;-65
2022/03/20 12:16:04;;;;;;;19.88;13.57;;;15.00;47.00;;;;;;5025731;28;20481;-65
2022/03/20 12:19:12;;;;;;;20.95;14.30;;;15.00;47.00;;;;;;5023735;28;20108;-66
2022/03/20 12:22:02;;;;;;;18.98;13.45;;;15.00;45.10;;;;;;5024757;28;20034;-66
2022/03/20 12:24:37;;;;;;;18.35;13.40;;;15.10;46.00;;;;;;5024740;28;20045;-65
2022/03/20 12:29:47;;;;;;;17.77;13.73;;;15.20;44.80;;;;;;5026194;28;20543;-65
2022/03/20 12:32:14;;;;;;;18.60;14.10;;;15.20;45.10;;;;;;5023178;28;20129;-66
2022/03/20 12:34:44;;;;;;;15.93;12.68;;;15.20;45.70;;;;;;5021808;28;20033;-66
2022/03/20 12:37:32;;;;;;;17.52;13.10;;;15.30;45.90;;;;;;5024997;28;20114;-64
2022/03/20 12:40:23;;;;;;;17.25;12.82;;;15.40;45.20;;;;;;5026905;28;20056;-65
2022/03/20 12:43:10;;;;;;;18.50;13.40;;;15.40;45.00;;;;;;5009756;28;20049;-65
2022/03/20 12:45:47;;;;;;;22.67;15.43;;;15.40;44.90;;;;;;5023612;28;20500;-66
2022/03/20 12:48:18;;;;;;;18.50;14.35;;;15.40;43.60;;;;;;5023035;28;20377;-65
2022/03/20 12:51:09;;;;;;;17.80;13.07;;;15.50;44.10;;;;;;5023512;28;20239;-65
2022/03/20 12:53:41;;;;;;;20.70;12.90;;;15.50;44.70;;;;;;5023448;28;20517;-66
2022/03/20 12:58:41;;;;;;;18.85;12.63;;;15.60;44.20;;;;;;5024554;28;20041;-66
2022/03/20 13:01:11;;;;;;;18.40;12.90;;;15.60;43.70;;;;;;5023451;28;20025;-65
2022/03/20 13:03:37;;;;;;;21.63;13.30;;;15.60;43.90;;;;;;5024184;28;22197;-66
2022/03/20 13:06:03;;;;;;;15.90;11.88;;;15.70;43.90;;;;;;5023907;28;20520;-65
2022/03/20 13:08:39;;;;;;;16.88;12.68;;;15.70;43.80;;;;;;5021053;28;20110;-65
2022/03/20 13:14:00;;;;;;;19.25;12.20;;;15.70;43.70;;;;;;5023298;28;20072;-66
2022/03/20 13:16:26;;;;;;;17.70;13.18;;;15.80;43.80;;;;;;5022180;28;20505;-66
2022/03/20 13:18:52;;;;;;;18.67;13.38;;;15.80;42.60;;;;;;5024027;28;20041;-67
2022/03/20 13:21:19;;;;;;;18.45;12.68;;;15.80;42.50;;;;;;5024074;28;20203;-66
2022/03/20 13:23:45;;;;;;;17.38;11.63;;;15.80;42.20;;;;;;5021816;28;20033;-66